Time;durP1;ratioP1;P1;durP2;ratioP2;P2;SDS_P1;SDS_P2;PMS_P1;PMS_P2;Temp;Humidity;BMP_temperature;BMP_pressure;BME280_temperature;BME280_humidity;BME280_pressure;Samples;Min_cycle;Max_cycle;Signal;HPM_P1;HPM_P2
2023/05/18 00:00:45;;;;;;;1.13;0.80;;;22.50;40.10;;;;;;6387074;27;20365;-54
2023/05/18 00:03:47;;;;;;;1.20;0.88;;;22.90;40.20;;;;;;6388996;27;20042;-54
2023/05/18 00:06:55;;;;;;;0.95;0.77;;;22.80;40.00;;;;;;6388050;27;20038;-53
2023/05/18 00:09:57;;;;;;;1.02;0.93;;;22.60;40.00;;;;;;6387894;27;20042;-55
2023/05/18 00:13:04;;;;;;;1.60;1.10;;;22.90;40.30;;;;;;6391049;27;20092;-52
2023/05/18 00:16:06;;;;;;;1.20;0.90;;;22.70;40.10;;;;;;6393794;27;20035;-54
2023/05/18 00:19:08;;;;;;;1.23;0.82;;;22.80;40.20;;;;;;6391985;27;20038;-52
2023/05/18 00:22:09;;;;;;;1.02;0.93;;;22.70;40.10;;;;;;6393732;27;20416;-53
2023/05/18 00:25:11;;;;;;;1.15;0.90;;;22.80;40.30;;;;;;6393851;27;20043;-54
2023/05/18 00:28:12;;;;;;;;;;;22.80;40.40;;;;;;6393412;27;20050;-53
2023/05/18 00:31:14;;;;;;;0.88;0.80;;;23.00;40.80;;;;;;6393132;27;19919;-53
2023/05/18 00:34:16;;;;;;;1.45;1.02;;;22.70;40.60;;;;;;6393509;27;20079;-52
2023/05/18 00:37:20;;;;;;;1.33;0.80;;;22.70;40.40;;;;;;6391438;27;20558;-52
2023/05/18 00:40:22;;;;;;;;;;;22.60;40.50;;;;;;6393371;27;20034;-53
2023/05/18 00:43:25;;;;;;;1.17;0.90;;;22.70;40.70;;;;;;6392248;27;19919;-52
2023/05/18 00:46:27;;;;;;;;;;;22.60;40.70;;;;;;6393010;27;20042;-54
2023/05/18 00:49:29;;;;;;;1.30;1.00;;;22.80;40.90;;;;;;6393701;27;19927;-52
2023/05/18 00:52:31;;;;;;;1.23;0.80;;;22.70;40.70;;;;;;6393059;27;20046;-52
2023/05/18 00:55:33;;;;;;;1.17;0.90;;;22.60;40.70;;;;;;6391464;27;20544;-53
2023/05/18 00:58:37;;;;;;;1.10;0.98;;;22.60;40.80;;;;;;6392100;27;20034;-54
2023/05/18 01:01:42;;;;;;;1.10;0.90;;;22.60;40.80;;;;;;6392111;27;20087;-52
2023/05/18 01:04:45;;;;;;;1.30;0.93;;;22.60;40.80;;;;;;6390932;27;20459;-52
2023/05/18 01:07:55;;;;;;;1.10;0.80;;;22.40;40.80;;;;;;6391563;27;20039;-54
2023/05/18 01:11:08;;;;;;;1.13;0.88;;;22.50;40.80;;;;;;6392399;27;20031;-52
2023/05/18 01:14:17;;;;;;;0.90;0.60;;;22.50;40.80;;;;;;6392472;27;20042;-54
2023/05/18 01:17:28;;;;;;;0.88;0.80;;;22.50;40.80;;;;;;6392314;27;20507;-53
2023/05/18 01:20:37;;;;;;;1.02;0.70;;;22.40;40.70;;;;;;6392541;27;20037;-53
2023/05/18 01:24:02;;;;;;;0.95;0.85;;;22.40;40.70;;;;;;6373639;27;20054;-55
2023/05/18 01:27:07;;;;;;;1.15;0.93;;;22.50;40.80;;;;;;6391490;27;20039;-53
2023/05/18 01:30:09;;;;;;;1.27;0.77;;;21.90;40.50;;;;;;6373705;27;20043;-51
2023/05/18 01:33:12;;;;;;;1.05;0.95;;;22.20;40.80;;;;;;6387796;27;20069;-54
2023/05/18 01:36:13;;;;;;;1.17;0.95;;;22.40;40.90;;;;;;6392004;27;20450;-53
2023/05/18 01:39:15;;;;;;;1.00;0.70;;;22.40;41.00;;;;;;6391762;27;20039;-53
2023/05/18 01:42:22;;;;;;;1.50;1.05;;;22.10;40.90;;;;;;6391954;27;20115;-53
2023/05/18 01:45:28;;;;;;;1.20;0.90;;;22.40;40.90;;;;;;6392337;27;20336;-51
2023/05/18 01:48:36;;;;;;;1.23;0.85;;;22.50;41.00;;;;;;6391557;27;20039;-52
2023/05/18 01:51:45;;;;;;;0.93;0.73;;;22.40;41.70;;;;;;6340203;27;20077;-53
2023/05/18 01:54:52;;;;;;;1.20;0.90;;;22.40;41.10;;;;;;6337410;27;20569;-54
2023/05/18 01:57:56;;;;;;;1.00;0.77;;;22.30;41.10;;;;;;6391823;27;20405;-53
2023/05/18 02:00:58;;;;;;;1.33;0.93;;;22.50;41.20;;;;;;6387195;27;20469;-53
2023/05/18 02:03:59;;;;;;;1.15;0.90;;;22.40;41.40;;;;;;6391410;27;20041;-54
2023/05/18 02:07:01;;;;;;;1.13;1.00;;;22.50;41.40;;;;;;6391700;27;20030;-54
2023/05/18 02:10:02;;;;;;;;;;;22.30;41.50;;;;;;6387324;27;20092;-53
2023/05/18 02:13:06;;;;;;;1.10;0.75;;;22.40;41.50;;;;;;6391038;27;19919;-52
2023/05/18 02:16:08;;;;;;;1.08;0.90;;;22.40;41.60;;;;;;6390684;27;20103;-52
2023/05/18 02:19:10;;;;;;;1.50;1.00;;;22.00;41.50;;;;;;6390884;27;20060;-54
2023/05/18 02:22:12;;;;;;;1.05;0.70;;;22.00;41.50;;;;;;6391078;27;20042;-53
2023/05/18 02:25:15;;;;;;;1.13;0.82;;;22.30;41.60;;;;;;6391040;27;20043;-52
2023/05/18 02:28:17;;;;;;;1.00;0.90;;;22.40;41.60;;;;;;6391295;27;20034;-53
2023/05/18 02:31:19;;;;;;;1.23;1.00;;;22.00;41.50;;;;;;6389620;27;20038;-49
2023/05/18 02:34:21;;;;;;;1.20;0.90;;;21.90;41.60;;;;;;6390706;27;20031;-55
2023/05/18 02:37:27;;;;;;;1.17;0.88;;;22.20;41.80;;;;;;6390754;27;20481;-53
2023/05/18 02:40:30;;;;;;;0.98;0.70;;;22.00;41.70;;;;;;6390826;27;20042;-52
2023/05/18 02:43:32;;;;;;;1.15;0.80;;;22.30;41.80;;;;;;6387149;27;20038;-50
2023/05/18 02:46:36;;;;;;;1.25;0.90;;;22.20;41.80;;;;;;6387490;27;20405;-51
2023/05/18 02:49:40;;;;;;;1.10;0.90;;;21.70;41.70;;;;;;6389184;27;20552;-53
2023/05/18 02:52:44;;;;;;;1.00;0.70;;;22.30;42.00;;;;;;6388644;27;20038;-54
2023/05/18 02:55:46;;;;;;;0.88;0.80;;;22.30;42.00;;;;;;6390301;27;20049;-53
2023/05/18 02:58:56;;;;;;;0.80;0.68;;;22.20;41.90;;;;;;6372725;27;20151;-53
2023/05/18 03:02:03;;;;;;;1.10;0.95;;;21.90;41.60;;;;;;6390715;27;20043;-53
2023/05/18 03:05:06;;;;;;;1.42;0.90;;;22.20;42.00;;;;;;6390120;27;20078;-52
2023/05/18 03:08:09;;;;;;;1.17;0.90;;;22.10;41.80;;;;;;6390037;27;20035;-54
2023/05/18 03:11:10;;;;;;;1.08;0.70;;;22.10;42.00;;;;;;6389865;27;20039;-53
2023/05/18 03:14:12;;;;;;;;;;;21.90;41.90;;;;;;6390797;27;20325;-54
2023/05/18 03:17:14;;;;;;;1.00;0.80;;;22.40;42.40;;;;;;6388659;27;19919;-54
2023/05/18 03:20:16;;;;;;;1.00;0.65;;;22.20;42.10;;;;;;6387167;27;20103;-53
2023/05/18 03:23:17;;;;;;;0.85;0.80;;;22.10;42.20;;;;;;6387928;27;20042;-53
2023/05/18 03:26:19;;;;;;;0.82;0.60;;;22.20;42.20;;;;;;6387543;27;20035;-53
2023/05/18 03:29:23;;;;;;;1.13;0.80;;;22.20;42.40;;;;;;6388994;27;20117;-51
2023/05/18 03:32:32;;;;;;;1.20;0.90;;;22.10;42.20;;;;;;6390132;27;20092;-52
2023/05/18 03:35:33;;;;;;;1.33;0.80;;;22.00;42.40;;;;;;6385784;27;20526;-54
2023/05/18 03:38:34;;;;;;;;;;;21.70;42.30;;;;;;6390516;27;20325;-55
2023/05/18 03:41:42;;;;;;;4.85;0.93;;;21.70;42.70;;;;;;6390140;27;19919;-56
2023/05/18 03:44:45;;;;;;;2.20;0.77;;;22.10;42.50;;;;;;6389609;27;20118;-57
2023/05/18 03:47:46;;;;;;;1.00;0.80;;;22.10;42.50;;;;;;6394037;27;20063;-57
2023/05/18 03:50:48;;;;;;;0.85;0.80;;;22.30;42.70;;;;;;6395027;27;20110;-57
2023/05/18 03:53:51;;;;;;;1.33;0.70;;;22.20;42.70;;;;;;6394674;27;20031;-55
2023/05/18 03:56:52;;;;;;;1.23;0.63;;;22.30;41.50;;;;;;6394122;27;20437;-56
2023/05/18 03:59:55;;;;;;;;;;;22.10;42.70;;;;;;6393605;27;20105;-57
2023/05/18 04:02:56;;;;;;;0.90;0.70;;;21.80;42.80;;;;;;6375218;27;19919;-57
2023/05/18 04:05:59;;;;;;;1.27;0.73;;;22.10;42.90;;;;;;6393557;27;20167;-56
2023/05/18 04:09:03;;;;;;;;;;;22.10;42.80;;;;;;6392226;27;20031;-56
2023/05/18 04:12:05;;;;;;;1.10;1.00;;;22.30;43.20;;;;;;6391625;27;20270;-57
2023/05/18 04:15:09;;;;;;;1.00;0.90;;;22.10;42.90;;;;;;6393560;27;20034;-57
2023/05/18 04:18:13;;;;;;;1.40;0.98;;;21.90;42.80;;;;;;6392086;27;20442;-57
2023/05/18 04:21:18;;;;;;;0.82;0.75;;;21.60;42.50;;;;;;6374109;27;20088;-55
2023/05/18 04:24:20;;;;;;;1.10;0.90;;;21.90;43.10;;;;;;6391899;27;20058;-57
2023/05/18 04:27:21;;;;;;;0.80;0.73;;;22.20;43.10;;;;;;6393140;27;20038;-57
2023/05/18 04:30:28;;;;;;;0.70;0.52;;;22.20;43.10;;;;;;6374183;27;20031;-57
2023/05/18 04:33:30;;;;;;;0.90;0.70;;;22.10;43.00;;;;;;6392600;27;20762;-56
2023/05/18 04:36:31;;;;;;;;;;;22.10;43.20;;;;;;6392270;27;20118;-56
2023/05/18 04:39:33;;;;;;;1.52;0.70;;;22.20;43.40;;;;;;6391322;27;19919;-57
2023/05/18 04:42:44;;;;;;;1.05;0.90;;;21.90;43.10;;;;;;6373700;27;20041;-56
2023/05/18 04:45:49;;;;;;;1.67;0.80;;;22.00;43.10;;;;;;6373798;27;20061;-57
2023/05/18 04:48:52;;;;;;;1.17;0.80;;;22.00;43.10;;;;;;6390536;27;20562;-57
2023/05/18 04:51:55;;;;;;;0.98;0.75;;;21.60;42.90;;;;;;6388720;27;20047;-57
2023/05/18 04:54:57;;;;;;;1.30;0.80;;;21.80;43.00;;;;;;6391552;27;20030;-56
2023/05/18 04:57:59;;;;;;;;;;;22.10;43.20;;;;;;6390550;27;20038;-57
2023/05/18 05:01:01;;;;;;;1.02;0.80;;;22.10;43.30;;;;;;6386567;27;19928;-57
2023/05/18 05:04:05;;;;;;;0.93;0.77;;;21.80;43.10;;;;;;6390666;27;20408;-57
2023/05/18 05:07:06;;;;;;;0.80;0.68;;;21.90;43.10;;;;;;6390212;27;20458;-56
2023/05/18 05:10:08;;;;;;;;;;;22.10;43.20;;;;;;6390720;27;20175;-57
2023/05/18 05:13:10;;;;;;;0.88;0.70;;;21.80;43.30;;;;;;6388960;27;19918;-56
2023/05/18 05:16:11;;;;;;;;;;;22.00;43.10;;;;;;6390095;27;20031;-57
2023/05/18 05:19:14;;;;;;;1.23;0.80;;;22.20;43.50;;;;;;6390617;27;19930;-56
2023/05/18 05:22:16;;;;;;;;;;;22.10;43.20;;;;;;6389440;27;20039;-56
2023/05/18 05:25:21;;;;;;;0.70;0.50;;;21.80;43.40;;;;;;6390277;27;20051;-57
2023/05/18 05:28:23;;;;;;;0.77;0.60;;;22.00;43.20;;;;;;6372939;27;20035;-56
2023/05/18 05:31:25;;;;;;;0.70;0.57;;;22.00;43.30;;;;;;6390320;27;20039;-57
2023/05/18 05:34:27;;;;;;;0.90;0.63;;;22.10;43.40;;;;;;6389985;27;20038;-56
2023/05/18 05:37:28;;;;;;;1.00;0.80;;;22.00;43.50;;;;;;6389638;27;20609;-57
2023/05/18 05:40:30;;;;;;;0.93;0.60;;;21.50;43.10;;;;;;6389941;27;20122;-56
2023/05/18 05:43:32;;;;;;;0.60;0.57;;;22.20;43.50;;;;;;6390343;27;20534;-55
2023/05/18 05:46:34;;;;;;;0.90;0.75;;;22.00;43.40;;;;;;6390630;27;20046;-57
2023/05/18 05:49:36;;;;;;;0.50;0.47;;;21.90;43.30;;;;;;6389928;27;20069;-57
2023/05/18 05:52:38;;;;;;;0.80;0.68;;;22.00;43.40;;;;;;6388937;27;20532;-57
2023/05/18 05:55:40;;;;;;;0.85;0.60;;;21.90;43.50;;;;;;6388050;27;20062;-57
2023/05/18 05:58:47;;;;;;;0.90;0.70;;;21.90;43.50;;;;;;6388312;27;20458;-57
2023/05/18 06:01:49;;;;;;;;;;;21.90;43.60;;;;;;6387756;27;20056;-57
2023/05/18 06:04:50;;;;;;;0.80;0.60;;;21.90;43.80;;;;;;6387516;27;20277;-55
2023/05/18 06:07:57;;;;;;;0.82;0.60;;;22.00;43.60;;;;;;6385921;27;20109;-57
2023/05/18 06:10:58;;;;;;;0.80;0.80;;;22.00;43.40;;;;;;6385263;27;20043;-56
2023/05/18 06:14:00;;;;;;;0.70;0.60;;;22.00;43.60;;;;;;6386319;27;20119;-57
2023/05/18 06:17:02;;;;;;;1.20;0.70;;;21.90;43.50;;;;;;6386845;27;20120;-57
2023/05/18 06:20:05;;;;;;;0.60;0.47;;;21.90;43.50;;;;;;6386363;27;20042;-57
2023/05/18 06:23:07;;;;;;;1.05;0.77;;;22.00;43.50;;;;;;6385924;27;20297;-54
2023/05/18 06:26:21;;;;;;;0.98;0.60;;;21.90;43.60;;;;;;6386516;27;20086;-58
2023/05/18 06:29:37;;;;;;;1.02;0.73;;;22.00;43.50;;;;;;6386427;27;20030;-58
2023/05/18 06:32:44;;;;;;;0.80;0.50;;;21.60;43.60;;;;;;6386720;27;20056;-58
2023/05/18 06:35:51;;;;;;;0.70;0.57;;;21.90;43.60;;;;;;6385907;27;20039;-58
2023/05/18 06:38:52;;;;;;;0.98;0.88;;;22.00;41.90;;;;;;6385081;27;20043;-58
2023/05/18 06:41:54;;;;;;;;;;;22.20;43.80;;;;;;6386146;27;20042;-58
2023/05/18 06:44:58;;;;;;;1.40;0.70;;;22.30;44.10;;;;;;6385074;27;19976;-58
2023/05/18 06:48:23;;;;;;;0.75;0.60;;;21.90;43.70;;;;;;6386064;27;20043;-58
2023/05/18 06:51:24;;;;;;;0.75;0.70;;;22.00;43.60;;;;;;6386292;27;20038;-57
2023/05/18 06:54:28;;;;;;;0.73;0.73;;;22.10;43.80;;;;;;6385457;27;20037;-57
2023/05/18 06:57:30;;;;;;;0.90;0.70;;;22.10;43.70;;;;;;6385231;27;20114;-57
2023/05/18 07:00:32;;;;;;;0.70;0.60;;;22.10;43.60;;;;;;6385608;27;20404;-58
2023/05/18 07:03:35;;;;;;;0.70;0.60;;;22.20;43.80;;;;;;6384778;27;20109;-57
2023/05/18 07:06:37;;;;;;;0.80;0.70;;;21.50;43.30;;;;;;6385282;27;20572;-57
2023/05/18 07:09:40;;;;;;;;;;;22.30;43.90;;;;;;6385465;27;20099;-57
2023/05/18 07:12:44;;;;;;;1.95;0.50;;;22.00;43.60;;;;;;6384010;27;19925;-57
2023/05/18 07:15:47;;;;;;;0.70;0.55;;;22.20;43.70;;;;;;6384303;27;20389;-57
2023/05/18 07:18:49;;;;;;;;;;;22.10;43.60;;;;;;6383364;27;20086;-57
2023/05/18 07:21:50;;;;;;;0.80;0.63;;;22.20;43.80;;;;;;6384780;27;19923;-57
2023/05/18 07:24:52;;;;;;;0.55;0.40;;;22.20;43.70;;;;;;6384914;27;20039;-57
2023/05/18 07:27:54;;;;;;;0.98;0.88;;;22.20;43.70;;;;;;6331004;27;20055;-57
2023/05/18 07:30:56;;;;;;;0.80;0.50;;;22.30;43.60;;;;;;6384794;27;20103;-57
2023/05/18 07:33:59;;;;;;;0.95;0.73;;;22.40;43.80;;;;;;6333776;28;21745;-57
2023/05/18 07:37:02;;;;;;;0.80;0.60;;;22.20;43.30;;;;;;6333573;28;20309;-57
2023/05/18 07:40:08;;;;;;;0.90;0.73;;;21.70;43.40;;;;;;6299131;28;20437;-57
2023/05/18 07:43:10;;;;;;;0.50;0.50;;;22.30;43.60;;;;;;6334465;28;20040;-59
2023/05/18 07:46:12;;;;;;;0.60;0.50;;;22.00;43.70;;;;;;6334674;28;20229;-56
2023/05/18 07:49:14;;;;;;;0.90;0.65;;;22.20;43.80;;;;;;6334696;28;20130;-57
2023/05/18 07:52:15;;;;;;;0.85;0.70;;;22.30;43.80;;;;;;6333996;28;20410;-57
2023/05/18 07:55:17;;;;;;;0.80;0.70;;;22.30;43.80;;;;;;6333403;28;20593;-56
2023/05/18 07:58:18;;;;;;;1.05;0.70;;;21.90;43.60;;;;;;6333124;28;20089;-57
2023/05/18 08:01:28;;;;;;;0.68;0.57;;;22.30;43.60;;;;;;6332162;28;20514;-57
2023/05/18 08:04:30;;;;;;;0.70;0.60;;;22.20;42.10;;;;;;6331398;28;20047;-57
2023/05/18 08:07:32;;;;;;;0.90;0.68;;;22.40;43.70;;;;;;6332783;28;20070;-58
2023/05/18 08:10:34;;;;;;;0.73;0.52;;;22.40;43.80;;;;;;6331908;28;20036;-58
2023/05/18 08:13:35;;;;;;;;;;;22.30;43.80;;;;;;6331956;28;20043;-57
2023/05/18 08:16:37;;;;;;;0.63;0.50;;;22.50;44.10;;;;;;6333157;28;19959;-57
2023/05/18 08:19:39;;;;;;;0.80;0.60;;;22.40;43.80;;;;;;6332550;28;20258;-56
2023/05/18 08:22:43;;;;;;;0.85;0.63;;;22.40;43.90;;;;;;6332716;28;20036;-56
2023/05/18 08:25:50;;;;;;;0.70;0.65;;;22.30;43.90;;;;;;6333354;28;20490;-57
2023/05/18 08:28:51;;;;;;;0.82;0.70;;;22.20;44.00;;;;;;6332838;28;20379;-56
2023/05/18 08:31:55;;;;;;;0.90;0.70;;;22.50;44.10;;;;;;6332161;28;20040;-58
2023/05/18 08:34:57;;;;;;;0.90;0.73;;;22.30;44.10;;;;;;6336935;28;20096;-57
2023/05/18 08:37:59;;;;;;;1.08;0.70;;;22.30;44.00;;;;;;6338907;28;20032;-57
2023/05/18 08:41:06;;;;;;;1.13;0.70;;;22.00;44.00;;;;;;6337635;28;20047;-57
2023/05/18 08:44:14;;;;;;;0.95;0.60;;;22.40;44.10;;;;;;6336105;28;20517;-57
2023/05/18 08:47:16;;;;;;;0.88;0.60;;;22.50;44.20;;;;;;6320544;28;20032;-57
2023/05/18 08:50:20;;;;;;;0.80;0.55;;;22.60;44.40;;;;;;6336184;28;20036;-57
2023/05/18 08:53:25;;;;;;;0.90;0.70;;;22.50;44.30;;;;;;6337517;28;20046;-57
2023/05/18 08:56:29;;;;;;;0.90;0.70;;;22.10;44.00;;;;;;6337387;28;20074;-55
2023/05/18 08:59:36;;;;;;;0.82;0.65;;;22.50;44.20;;;;;;6337933;28;20697;-57
2023/05/18 09:02:38;;;;;;;0.77;0.55;;;22.40;44.00;;;;;;6337439;28;20036;-57
2023/05/18 09:05:41;;;;;;;0.80;0.60;;;22.50;44.00;;;;;;6336173;28;20043;-58
2023/05/18 09:08:44;;;;;;;0.80;0.70;;;22.50;43.80;;;;;;6336844;28;20039;-57
2023/05/18 09:11:46;;;;;;;1.00;0.70;;;22.50;43.70;;;;;;6318196;28;20096;-57
2023/05/18 09:14:48;;;;;;;1.30;0.80;;;22.50;43.50;;;;;;6337005;28;20048;-55
2023/05/18 09:17:49;;;;;;;;;;;22.60;43.70;;;;;;6337567;28;20690;-58
2023/05/18 09:20:51;;;;;;;0.65;0.55;;;22.60;43.60;;;;;;6337268;28;20022;-57
2023/05/18 09:23:53;;;;;;;1.05;0.80;;;22.60;43.50;;;;;;6337550;28;20097;-57
2023/05/18 09:26:57;;;;;;;0.43;0.40;;;22.50;43.20;;;;;;6337608;28;20036;-57
2023/05/18 09:30:01;;;;;;;1.38;0.65;;;22.60;43.20;;;;;;6336346;28;20036;-57
2023/05/18 09:33:03;;;;;;;0.82;0.73;;;22.50;43.00;;;;;;6335622;28;20028;-57
2023/05/18 09:36:06;;;;;;;1.38;0.80;;;22.60;43.00;;;;;;6332309;28;20529;-57
2023/05/18 09:39:10;;;;;;;0.80;0.70;;;22.70;43.00;;;;;;6301458;28;20043;-57
2023/05/18 09:42:12;;;;;;;1.33;0.88;;;22.50;42.90;;;;;;6337571;28;20114;-57
2023/05/18 09:45:18;;;;;;;1.02;0.73;;;22.60;42.90;;;;;;6336535;28;20050;-57
2023/05/18 09:48:20;;;;;;;1.20;0.90;;;22.60;42.60;;;;;;6335718;28;20097;-57
2023/05/18 09:51:26;;;;;;;1.05;0.70;;;22.60;42.70;;;;;;6335821;28;20039;-57
2023/05/18 09:54:28;;;;;;;1.00;0.80;;;22.60;42.50;;;;;;6333761;28;20039;-57
2023/05/18 09:57:29;;;;;;;0.90;0.68;;;22.10;42.10;;;;;;6335100;28;20218;-55
2023/05/18 10:00:31;;;;;;;;;;;22.80;42.20;;;;;;6336525;28;20410;-57
2023/05/18 10:03:36;;;;;;;1.27;0.90;;;22.60;42.30;;;;;;6335801;28;20137;-57
2023/05/18 10:06:48;;;;;;;1.33;0.77;;;22.40;41.70;;;;;;6318120;28;20415;-57
2023/05/18 10:10:00;;;;;;;1.23;0.90;;;22.60;41.70;;;;;;6334247;28;20416;-57
2023/05/18 10:13:03;;;;;;;0.70;0.57;;;22.40;41.50;;;;;;6316289;28;20226;-57
2023/05/18 10:16:07;;;;;;;1.10;1.00;;;22.30;41.30;;;;;;6335217;28;20042;-57
2023/05/18 10:19:11;;;;;;;1.27;0.88;;;22.70;41.30;;;;;;6335588;28;20040;-57
2023/05/18 10:22:16;;;;;;;1.10;0.85;;;22.70;40.90;;;;;;6317827;28;20394;-57
2023/05/18 10:25:20;;;;;;;1.13;0.90;;;22.80;40.80;;;;;;6317211;28;20062;-56
2023/05/18 10:28:26;;;;;;;0.93;0.80;;;22.70;40.40;;;;;;6316694;28;20032;-57
2023/05/18 10:31:32;;;;;;;1.08;0.77;;;22.70;40.10;;;;;;6317543;28;20075;-57
2023/05/18 10:34:37;;;;;;;1.20;0.80;;;22.50;39.80;;;;;;6335648;28;20057;-57
2023/05/18 10:37:42;;;;;;;0.80;0.70;;;22.70;39.80;;;;;;6334999;28;20551;-57
2023/05/18 10:40:45;;;;;;;0.80;0.80;;;22.70;39.60;;;;;;6316514;28;20040;-56
2023/05/18 10:43:47;;;;;;;1.15;0.70;;;22.90;39.50;;;;;;6317108;28;20465;-57
2023/05/18 10:46:53;;;;;;;0.90;0.70;;;22.20;39.20;;;;;;6335359;28;20066;-57
2023/05/18 10:49:57;;;;;;;1.20;0.82;;;22.90;39.20;;;;;;6335917;28;20074;-57
2023/05/18 10:53:00;;;;;;;0.90;0.80;;;22.80;39.10;;;;;;6335336;28;20241;-56
2023/05/18 10:56:06;;;;;;;1.20;0.90;;;22.80;39.00;;;;;;6334199;28;20047;-57
2023/05/18 10:59:08;;;;;;;1.00;0.70;;;23.50;39.30;;;;;;6333612;28;20530;-57
2023/05/18 11:02:17;;;;;;;1.42;0.93;;;22.80;39.10;;;;;;6334922;28;20126;-56
2023/05/18 11:05:23;;;;;;;1.05;0.90;;;22.80;37.90;;;;;;6334434;28;20032;-57
2023/05/18 11:08:28;;;;;;;0.85;0.73;;;23.00;39.10;;;;;;6334044;28;20272;-57
2023/05/18 11:11:29;;;;;;;1.25;0.85;;;22.90;39.20;;;;;;6335082;28;20036;-57
2023/05/18 11:14:31;;;;;;;1.00;0.82;;;22.90;39.30;;;;;;6335110;28;20036;-56
2023/05/18 11:17:33;;;;;;;1.13;0.90;;;23.00;39.30;;;;;;6314012;28;20062;-57
2023/05/18 11:20:35;;;;;;;1.08;0.90;;;22.90;39.40;;;;;;6334814;28;20574;-57
2023/05/18 11:23:37;;;;;;;;;;;22.70;39.30;;;;;;6335291;28;20040;-57
2023/05/18 11:26:39;;;;;;;1.10;0.80;;;23.10;39.80;;;;;;6335020;28;19972;-57
2023/05/18 11:29:43;;;;;;;0.77;0.77;;;22.90;39.40;;;;;;6316216;28;20038;-57
2023/05/18 11:32:50;;;;;;;1.20;0.80;;;23.10;39.60;;;;;;6332900;28;20039;-57
2023/05/18 11:36:03;;;;;;;1.70;1.10;;;22.40;39.30;;;;;;6331681;28;20096;-56
2023/05/18 11:39:06;;;;;;;1.10;0.77;;;23.20;39.80;;;;;;6315974;28;20028;-57
2023/05/18 11:42:09;;;;;;;1.42;0.98;;;23.20;39.90;;;;;;6334695;28;20042;-57
2023/05/18 11:45:12;;;;;;;1.40;1.08;;;23.20;39.90;;;;;;6316049;28;20364;-56
2023/05/18 11:48:13;;;;;;;0.85;0.60;;;23.00;39.80;;;;;;6315689;28;20513;-57
2023/05/18 11:51:18;;;;;;;1.33;0.98;;;23.20;40.10;;;;;;6333484;28;20032;-56
2023/05/18 11:54:22;;;;;;;1.38;0.90;;;23.20;40.00;;;;;;6333883;28;20043;-57
2023/05/18 11:57:25;;;;;;;0.98;0.73;;;23.00;39.80;;;;;;6333295;28;20517;-57
2023/05/18 12:00:31;;;;;;;1.40;0.93;;;22.90;39.70;;;;;;6298681;28;20031;-56
2023/05/18 12:03:35;;;;;;;1.08;0.88;;;22.80;39.60;;;;;;6333811;28;20051;-57
2023/05/18 12:06:37;;;;;;;0.93;0.63;;;23.20;39.90;;;;;;6332803;28;20111;-57
2023/05/18 12:09:42;;;;;;;1.17;0.70;;;22.90;39.80;;;;;;6336519;28;20070;-57
2023/05/18 12:12:48;;;;;;;1.10;0.90;;;23.40;40.00;;;;;;6318692;28;20039;-57
2023/05/18 12:15:52;;;;;;;0.98;0.88;;;23.40;39.90;;;;;;6317046;28;20488;-57
2023/05/18 12:18:56;;;;;;;1.40;1.13;;;23.20;39.90;;;;;;6337538;28;20040;-57
2023/05/18 12:21:57;;;;;;;0.85;0.68;;;23.50;40.10;;;;;;6337979;28;20461;-56
2023/05/18 12:25:00;;;;;;;1.13;1.00;;;23.00;39.90;;;;;;6337937;28;20115;-57
2023/05/18 12:28:03;;;;;;;1.35;0.80;;;23.40;40.10;;;;;;6333484;28;20039;-56
2023/05/18 12:31:07;;;;;;;0.65;0.60;;;23.60;40.20;;;;;;6335848;28;20070;-57
2023/05/18 12:34:11;;;;;;;1.35;0.93;;;22.90;40.00;;;;;;6336644;28;20130;-57
2023/05/18 12:37:13;;;;;;;1.35;0.90;;;23.30;40.30;;;;;;6334684;28;20039;-57
2023/05/18 12:40:20;;;;;;;1.23;0.80;;;23.40;40.50;;;;;;6337208;28;20437;-57
2023/05/18 12:43:25;;;;;;;1.10;0.77;;;23.20;40.30;;;;;;6337265;28;20348;-57
2023/05/18 12:46:26;;;;;;;1.10;0.95;;;23.50;40.50;;;;;;6337704;28;20039;-57
2023/05/18 12:49:28;;;;;;;0.82;0.77;;;23.40;40.50;;;;;;6337056;28;20487;-57
2023/05/18 12:52:31;;;;;;;1.17;0.80;;;23.60;40.60;;;;;;6337035;28;20535;-55
2023/05/18 12:55:37;;;;;;;0.70;0.70;;;23.80;40.60;;;;;;6336457;28;20040;-56
2023/05/18 12:58:39;;;;;;;1.42;0.82;;;23.60;40.50;;;;;;6336979;28;20035;-57
2023/05/18 13:01:42;;;;;;;1.00;0.90;;;23.70;40.60;;;;;;6334102;28;20172;-56
2023/05/18 13:04:47;;;;;;;1.05;0.80;;;23.60;40.50;;;;;;6336784;28;20031;-57
2023/05/18 13:07:49;;;;;;;1.10;0.80;;;23.50;40.40;;;;;;6336046;28;20369;-57
2023/05/18 13:10:51;;;;;;;1.48;1.10;;;23.60;40.70;;;;;;6336905;28;20477;-57
2023/05/18 13:14:13;;;;;;;0.98;0.68;;;23.60;40.70;;;;;;6336684;28;20502;-57
2023/05/18 13:17:20;;;;;;;0.88;0.77;;;23.80;40.90;;;;;;6334579;28;20042;-57
2023/05/18 13:20:23;;;;;;;0.90;0.80;;;23.50;40.80;;;;;;6335501;28;20044;-57
2023/05/18 13:23:27;;;;;;;0.90;0.70;;;23.70;40.90;;;;;;6317654;28;20040;-57
2023/05/18 13:26:29;;;;;;;0.82;0.70;;;23.70;41.00;;;;;;6336702;28;20066;-57
2023/05/18 13:29:33;;;;;;;0.93;0.82;;;23.70;41.10;;;;;;6336702;28;20048;-57
2023/05/18 13:32:34;;;;;;;0.80;0.65;;;23.70;41.20;;;;;;6331666;28;20043;-57
2023/05/18 13:35:40;;;;;;;1.20;1.10;;;23.70;41.40;;;;;;6336739;28;20035;-57
2023/05/18 13:38:42;;;;;;;0.80;0.77;;;23.70;41.40;;;;;;6318323;28;20032;-57
2023/05/18 13:41:44;;;;;;;1.58;1.15;;;23.30;41.30;;;;;;6336071;28;20070;-57
2023/05/18 13:44:46;;;;;;;1.10;0.88;;;23.70;41.90;;;;;;6333636;28;20264;-56
2023/05/18 13:47:49;;;;;;;1.00;0.80;;;23.30;41.70;;;;;;6333380;28;20040;-57
2023/05/18 13:50:51;;;;;;;1.10;0.82;;;23.70;41.90;;;;;;6335400;28;20032;-57
2023/05/18 13:53:52;;;;;;;0.90;0.65;;;23.70;42.00;;;;;;6334552;28;20132;-57
2023/05/18 13:56:54;;;;;;;0.70;0.65;;;23.60;42.20;;;;;;6335709;28;20036;-57
2023/05/18 13:59:57;;;;;;;0.70;0.60;;;23.30;42.10;;;;;;6336211;28;20096;-57
2023/05/18 14:03:01;;;;;;;1.35;0.85;;;23.70;42.30;;;;;;6336345;28;20036;-57
2023/05/18 14:06:05;;;;;;;1.27;1.00;;;23.70;42.50;;;;;;6335201;28;20035;-57
2023/05/18 14:09:06;;;;;;;0.93;0.80;;;23.60;42.40;;;;;;6335759;28;20125;-57
2023/05/18 14:12:09;;;;;;;;;;;23.40;42.00;;;;;;6335957;28;20040;-57
2023/05/18 14:15:12;;;;;;;0.90;0.80;;;23.70;42.20;;;;;;6335152;28;19930;-57
2023/05/18 14:18:15;;;;;;;1.13;0.73;;;23.80;42.20;;;;;;6335614;28;20642;-57
2023/05/18 14:21:16;;;;;;;1.15;0.80;;;23.50;42.10;;;;;;6334605;28;20070;-57
2023/05/18 14:24:18;;;;;;;0.80;0.70;;;23.80;42.70;;;;;;6335488;28;20063;-57
2023/05/18 14:27:20;;;;;;;1.13;0.80;;;23.70;43.00;;;;;;6335367;28;20036;-58
2023/05/18 14:30:25;;;;;;;1.08;0.80;;;23.60;42.80;;;;;;6316313;28;20063;-57
2023/05/18 14:33:26;;;;;;;1.00;0.70;;;22.70;42.40;;;;;;6335190;28;20035;-57
2023/05/18 14:36:28;;;;;;;1.20;0.80;;;23.70;43.40;;;;;;6334821;28;20040;-57
2023/05/18 14:39:29;;;;;;;0.95;0.68;;;23.70;56.00;;;;;;6334956;28;20038;-57
2023/05/18 14:42:31;;;;;;;1.00;0.80;;;23.60;43.70;;;;;;6334413;28;20044;-58
2023/05/18 14:45:33;;;;;;;1.00;0.90;;;23.80;42.60;;;;;;6333059;28;20105;-57
2023/05/18 14:48:35;;;;;;;1.33;0.98;;;23.80;42.60;;;;;;6334561;28;20228;-57
2023/05/18 14:51:37;;;;;;;1.10;1.00;;;23.70;42.60;;;;;;6333988;28;20063;-57
2023/05/18 14:54:42;;;;;;;1.25;0.98;;;23.70;42.70;;;;;;6331273;28;20043;-57
2023/05/18 14:57:44;;;;;;;0.70;0.63;;;23.90;42.80;;;;;;6334505;28;20036;-57
2023/05/18 15:00:46;;;;;;;0.90;0.80;;;23.80;42.80;;;;;;6334899;28;20410;-57
2023/05/18 15:03:47;;;;;;;;;;;23.90;42.80;;;;;;6334665;28;20116;-57
2023/05/18 15:06:49;;;;;;;0.80;0.70;;;23.60;42.70;;;;;;6334835;28;19966;-57
2023/05/18 15:09:54;;;;;;;0.70;0.70;;;23.90;42.70;;;;;;6334662;28;20583;-57
2023/05/18 15:12:57;;;;;;;0.82;0.60;;;23.80;42.70;;;;;;6333502;28;20040;-57
2023/05/18 15:15:59;;;;;;;0.60;0.60;;;23.90;42.70;;;;;;6334755;28;20244;-57
2023/05/18 15:19:00;;;;;;;0.80;0.77;;;23.90;42.80;;;;;;6334367;28;20448;-57
2023/05/18 15:22:02;;;;;;;0.98;0.88;;;23.90;42.70;;;;;;6334345;28;20243;-57
2023/05/18 15:25:06;;;;;;;0.88;0.70;;;23.90;42.50;;;;;;6333592;28;20108;-57
2023/05/18 15:28:09;;;;;;;1.02;0.93;;;23.90;42.50;;;;;;6333563;28;20070;-57
2023/05/18 15:31:11;;;;;;;0.80;0.60;;;23.80;42.50;;;;;;6333234;28;20036;-57
2023/05/18 15:34:15;;;;;;;0.88;0.68;;;23.70;42.60;;;;;;6333937;28;20526;-57
2023/05/18 15:37:16;;;;;;;0.80;0.80;;;23.80;42.70;;;;;;6333262;28;20443;-57
2023/05/18 15:40:18;;;;;;;0.75;0.60;;;23.90;42.80;;;;;;6333814;28;20036;-58
2023/05/18 15:43:24;;;;;;;1.10;0.90;;;23.90;42.90;;;;;;6315131;28;20530;-57
2023/05/18 15:46:30;;;;;;;1.67;0.70;;;23.90;42.90;;;;;;6332963;28;20043;-57
2023/05/18 15:49:34;;;;;;;0.60;0.57;;;23.90;43.00;;;;;;6315624;28;20064;-57
2023/05/18 15:52:36;;;;;;;1.27;0.90;;;24.00;43.00;;;;;;6279814;28;20512;-57
2023/05/18 15:55:40;;;;;;;1.00;0.88;;;23.90;43.30;;;;;;6333115;28;20533;-57
2023/05/18 15:58:42;;;;;;;1.20;1.00;;;23.80;42.60;;;;;;6332436;28;20036;-57
2023/05/18 16:01:44;;;;;;;0.90;0.80;;;23.90;43.20;;;;;;6332931;28;20061;-56